createdAt,value
2018-05-11T00:01:36.951Z,102222.02
2018-05-11T00:04:41.270Z,102221.70
2018-05-11T00:07:44.595Z,102225.80
2018-05-11T00:10:47.971Z,102218.16
2018-05-11T00:13:51.313Z,102216.62
2018-05-11T00:16:54.688Z,102219.61
2018-05-11T00:19:58.064Z,102224.56
2018-05-11T00:23:01.413Z,102223.26
2018-05-11T00:26:05.982Z,102220.93
2018-05-11T00:29:09.156Z,102215.80
2018-05-11T00:32:13.479Z,102219.62
2018-05-11T00:35:16.906Z,102221.16
2018-05-11T00:38:20.288Z,102215.60
2018-05-11T00:41:24.625Z,102216.14
2018-05-11T00:44:27.995Z,102215.77
2018-05-11T00:47:32.376Z,102215.70
2018-05-11T00:50:36.764Z,102219.42
2018-05-11T00:53:40.176Z,102218.66
2018-05-11T00:56:43.517Z,102217.19
2018-05-11T00:59:47.024Z,102211.51
2018-05-11T01:02:50.451Z,102209.46
2018-05-11T01:05:54.745Z,102211.26
2018-05-11T01:08:58.231Z,102209.84
2018-05-11T01:12:01.646Z,102210.72
2018-05-11T01:15:06.040Z,102213.60
2018-05-11T01:18:09.399Z,102216.78
2018-05-11T01:21:12.759Z,102218.98
2018-05-11T01:24:16.086Z,102217.53
2018-05-11T01:27:19.390Z,102221.38
2018-05-11T01:30:22.773Z,102211.84
2018-05-11T01:33:26.078Z,102208.22
2018-05-11T01:36:29.419Z,102202.12
2018-05-11T01:39:33.264Z,102205.06
2018-05-11T01:42:36.616Z,102200.31
2018-05-11T01:45:40.954Z,102199.64
2018-05-11T01:48:44.317Z,102207.63
2018-05-11T01:51:47.627Z,102208.54
2018-05-11T01:54:50.877Z,102201.50
2018-05-11T01:57:54.238Z,102206.27
2018-05-11T02:00:57.635Z,102204.36
2018-05-11T02:04:00.923Z,102207.49
2018-05-11T02:07:05.371Z,102207.67
2018-05-11T02:10:08.741Z,102209.29
2018-05-11T02:13:12.097Z,102210.32
2018-05-11T02:16:15.435Z,102208.88
2018-05-11T02:19:20.910Z,102210.59
2018-05-11T02:22:24.275Z,102210.40
2018-05-11T02:25:27.703Z,102210.07
2018-05-11T02:28:30.991Z,102212.12
2018-05-11T02:31:35.537Z,102214.70
2018-05-11T02:34:39.139Z,102216.81
2018-05-11T02:37:42.417Z,102214.77
2018-05-11T02:40:45.776Z,102214.67
2018-05-11T02:43:49.060Z,102219.99
2018-05-11T02:46:52.390Z,102219.53
2018-05-11T02:49:55.809Z,102219.93
2018-05-11T02:52:59.190Z,102221.01
2018-05-11T02:56:02.514Z,102217.55
2018-05-11T02:59:06.855Z,102224.02
2018-05-11T03:02:10.203Z,102227.02
2018-05-11T03:05:13.519Z,102228.01
2018-05-11T03:08:16.779Z,102226.26
2018-05-11T03:11:21.140Z,102227.67
2018-05-11T03:14:25.460Z,102230.35
2018-05-11T03:17:28.864Z,102232.29
2018-05-11T03:20:32.259Z,102227.19
2018-05-11T03:23:36.561Z,102234.28
2018-05-11T03:26:40.037Z,102231.56
2018-05-11T03:29:43.363Z,102234.60
2018-05-11T03:32:46.664Z,102235.38
2018-05-11T03:35:50.036Z,102228.87
2018-05-11T03:38:55.527Z,102233.43
2018-05-11T03:41:58.807Z,102237.55
2018-05-11T03:45:02.295Z,102231.17
2018-05-11T03:48:06.744Z,102230.03
2018-05-11T03:51:10.029Z,102234.05
2018-05-11T03:54:13.451Z,102239.06
2018-05-11T03:57:16.741Z,102241.37
2018-05-11T04:00:19.923Z,102242.64
2018-05-11T04:04:38.415Z,102243.31
2018-05-11T04:07:52.879Z,102258.03
2018-05-11T04:10:56.241Z,102262.53
2018-05-11T04:13:59.676Z,102263.55
2018-05-11T04:17:03.099Z,102259.21
2018-05-11T04:20:06.760Z,102258.38
2018-05-11T04:23:10.275Z,102262.61
2018-05-11T04:26:13.548Z,102263.35
2018-05-11T04:29:16.726Z,102264.61
2018-05-11T04:32:20.032Z,102259.77
2018-05-11T04:35:23.420Z,102264.78
2018-05-11T04:38:26.847Z,102260.25
2018-05-11T04:41:30.280Z,102260.40
2018-05-11T04:44:34.733Z,102270.24
2018-05-11T04:47:38.317Z,102273.30
2018-05-11T04:50:41.679Z,102277.59
2018-05-11T04:53:44.907Z,102279.14
2018-05-11T04:56:48.207Z,102283.50
2018-05-11T04:59:51.404Z,102280.24
2018-05-11T05:02:54.773Z,102286.10
2018-05-11T05:05:58.631Z,102284.10
2018-05-11T05:09:01.925Z,102282.98
2018-05-11T05:12:05.308Z,102277.96
2018-05-11T05:15:08.627Z,102274.35
2018-05-11T05:18:11.915Z,102276.35
2018-05-11T05:21:15.211Z,102273.98
2018-05-11T05:24:19.636Z,102266.83
2018-05-11T05:27:22.987Z,102271.89
2018-05-11T05:30:26.288Z,102277.79
2018-05-11T05:33:29.636Z,102275.21
2018-05-11T05:36:33.002Z,102278.54
2018-05-11T05:39:36.390Z,102275.44
2018-05-11T05:42:39.612Z,102274.88
2018-05-11T05:45:42.969Z,102274.05
2018-05-11T05:48:46.287Z,102266.79
2018-05-11T05:51:49.695Z,102268.70
2018-05-11T05:54:53.098Z,102263.58
2018-05-11T05:57:56.402Z,102263.40
2018-05-11T06:00:59.776Z,102267.18
2018-05-11T06:04:03.175Z,102270.19
2018-05-11T06:07:07.287Z,102269.71
2018-05-11T06:10:10.620Z,102273.24
2018-05-11T06:13:13.990Z,102272.50
2018-05-11T06:16:17.274Z,102273.03
2018-05-11T06:19:20.791Z,102273.31
2018-05-11T06:22:24.191Z,102267.83
2018-05-11T06:25:27.578Z,102270.37
2018-05-11T06:28:31.930Z,102269.89
2018-05-11T06:31:36.191Z,102265.11
2018-05-11T06:34:39.539Z,102258.05
2018-05-11T06:37:42.747Z,102252.86
2018-05-11T06:40:46.042Z,102250.80
2018-05-11T06:43:49.399Z,102244.27
2018-05-11T06:46:52.700Z,102238.97
2018-05-11T06:49:56.036Z,102237.72
2018-05-11T06:52:59.406Z,102240.35
2018-05-11T06:56:03.757Z,102231.75
2018-05-11T06:59:07.748Z,102229.08
2018-05-11T07:02:11.206Z,102226.31
2018-05-11T07:05:14.640Z,102222.11
2018-05-11T07:08:17.851Z,102225.04
2018-05-11T07:11:21.157Z,102219.98
2018-05-11T07:14:25.520Z,102222.74
2018-05-11T07:17:29.415Z,102220.80
2018-05-11T07:20:33.491Z,102218.79
2018-05-11T07:23:38.497Z,102214.07
2018-05-11T07:26:41.808Z,102217.13
2018-05-11T07:29:45.052Z,102218.52
2018-05-11T07:32:48.341Z,102215.04
2018-05-11T07:35:51.708Z,102213.16
2018-05-11T07:38:55.038Z,102213.92
2018-05-11T07:41:58.440Z,102209.99
2018-05-11T07:45:01.692Z,102204.32
2018-05-11T07:48:05.592Z,102198.98
2018-05-11T07:51:09.091Z,102190.84
2018-05-11T07:54:12.385Z,102191.57
2018-05-11T07:57:15.897Z,102188.80
2018-05-11T08:00:19.241Z,102183.60
2018-05-11T08:03:22.569Z,102186.20
2018-05-11T08:06:26.052Z,102183.24
2018-05-11T08:09:29.489Z,102183.47
2018-05-11T08:12:32.921Z,102184.37
2018-05-11T08:15:37.521Z,102182.06
2018-05-11T08:18:40.841Z,102179.12
2018-05-11T08:21:44.400Z,102175.72
2018-05-11T08:24:47.745Z,102170.79
2018-05-11T08:27:51.091Z,102167.50
2018-05-11T08:30:54.465Z,102162.01
2018-05-11T08:33:58.023Z,102156.43
2018-05-11T08:37:01.377Z,102157.03
2018-05-11T08:40:04.800Z,102162.15
2018-05-11T08:43:08.600Z,102166.09
2018-05-11T08:46:12.717Z,102162.05
2018-05-11T08:49:16.770Z,102158.79
2018-05-11T08:52:20.620Z,102153.20
2018-05-11T08:55:23.917Z,102153.89
2018-05-11T08:58:27.681Z,102147.30
2018-05-11T09:01:32.175Z,102144.52
2018-05-11T09:04:36.020Z,102145.97
2018-05-11T09:07:39.378Z,102136.08
2018-05-11T09:10:42.743Z,102134.83
2018-05-11T09:13:45.961Z,102134.02
2018-05-11T09:16:49.362Z,102125.71
2018-05-11T09:19:52.684Z,102123.10
2018-05-11T09:22:56.092Z,102115.77
2018-05-11T09:25:59.469Z,102119.87
2018-05-11T09:29:02.677Z,102115.33
2018-05-11T09:32:06.339Z,102108.17
2018-05-11T09:35:09.679Z,102113.96
2018-05-11T09:38:13.051Z,102113.92
2018-05-11T09:41:19.052Z,102109.51
2018-05-11T09:44:23.331Z,102105.88
2018-05-11T09:47:26.695Z,102107.44
2018-05-11T09:50:29.928Z,102106.11
2018-05-11T09:53:33.398Z,102106.22
2018-05-11T09:56:37.147Z,102111.65
2018-05-11T09:59:40.451Z,102107.39
2018-05-11T10:02:43.743Z,102103.69
2018-05-11T10:05:47.305Z,102102.97
2018-05-11T10:08:50.552Z,102099.80
2018-05-11T10:11:53.785Z,102097.49
2018-05-11T10:14:58.086Z,102093.07
2018-05-11T10:18:02.628Z,102088.11
2018-05-11T10:21:05.951Z,102082.53
2018-05-11T10:24:09.400Z,102080.28
2018-05-11T10:27:12.946Z,102073.56
2018-05-11T10:30:16.327Z,102073.24
2018-05-11T10:33:19.613Z,102077.44
2018-05-11T10:36:24.060Z,102071.06
2018-05-11T10:39:27.330Z,102065.73
2018-05-11T10:42:30.712Z,102066.05
2018-05-11T10:45:35.040Z,102063.45
2018-05-11T10:48:38.420Z,102061.07
2018-05-11T10:51:41.586Z,102058.87
2018-05-11T10:54:44.954Z,102053.53
2018-05-11T10:57:48.344Z,102052.00
2018-05-11T11:00:51.647Z,102052.22
2018-05-11T11:03:55.012Z,102042.77
2018-05-11T11:06:58.251Z,102039.32
2018-05-11T11:10:02.685Z,102032.50
2018-05-11T11:13:06.184Z,102028.45
2018-05-11T11:16:09.511Z,102022.42
2018-05-11T11:19:12.787Z,102017.18
2018-05-11T11:22:16.154Z,102014.87
2018-05-11T11:25:19.478Z,102006.50
2018-05-11T11:28:22.848Z,102004.77
2018-05-11T11:31:26.727Z,101994.80
2018-05-11T11:34:31.000Z,101988.98
2018-05-11T11:37:34.277Z,101984.20
2018-05-11T11:40:38.639Z,101979.17
2018-05-11T11:43:42.316Z,101980.68
2018-05-11T11:46:45.717Z,101978.15
2018-05-11T11:49:48.951Z,101971.40
2018-05-11T11:52:52.309Z,101972.23
2018-05-11T11:55:55.715Z,101963.29
2018-05-11T11:58:59.115Z,101962.77
2018-05-11T12:02:02.533Z,101956.46
2018-05-11T12:05:07.263Z,101958.34
2018-05-11T12:08:10.680Z,101949.05
2018-05-11T12:11:13.979Z,101951.36
2018-05-11T12:14:17.403Z,101946.30
2018-05-11T12:17:20.717Z,101946.57
2018-05-11T12:20:24.571Z,101939.47
2018-05-11T12:23:27.978Z,101929.39
2018-05-11T12:26:31.362Z,101928.90
2018-05-11T12:29:35.204Z,101926.74
2018-05-11T12:32:38.451Z,101922.56
2018-05-11T12:35:41.727Z,101921.39
2018-05-11T12:38:45.394Z,101924.03
2018-05-11T12:41:48.848Z,101929.23
2018-05-11T12:44:52.213Z,101923.46
2018-05-11T12:47:55.674Z,101922.54
2018-05-11T12:50:59.923Z,101923.83
2018-05-11T12:54:03.257Z,101913.79
2018-05-11T12:57:07.412Z,101909.00
2018-05-11T13:00:10.788Z,101903.11
2018-05-11T13:03:14.977Z,101898.34
2018-05-11T13:06:18.277Z,101898.92
2018-05-11T13:09:21.705Z,101905.35
2018-05-11T13:12:25.101Z,101902.68
2018-05-11T13:15:29.451Z,101891.77
2018-05-11T13:18:32.842Z,101886.86
2018-05-11T13:21:36.048Z,101878.03
2018-05-11T13:24:39.356Z,101879.00
2018-05-11T13:27:42.620Z,101878.22
2018-05-11T13:30:46.103Z,101870.35
2018-05-11T13:33:49.345Z,101866.64
2018-05-11T13:36:52.767Z,101864.74
2018-05-11T13:39:56.134Z,101860.59
2018-05-11T13:42:59.358Z,101864.00
2018-05-11T13:46:02.709Z,101857.82
2018-05-11T13:49:05.983Z,101847.65
2018-05-11T13:52:09.426Z,101851.69
2018-05-11T13:55:14.771Z,101852.23
2018-05-11T13:58:18.182Z,101849.65
2018-05-11T14:01:21.447Z,101848.89
2018-05-11T14:04:25.871Z,101851.24
2018-05-11T14:07:29.142Z,101846.15
2018-05-11T14:10:32.555Z,101838.95
2018-05-11T14:13:35.916Z,101848.46
2018-05-11T14:16:39.271Z,101846.41
2018-05-11T14:19:42.726Z,101835.29
2018-05-11T14:22:47.626Z,101830.32
2018-05-11T14:25:51.071Z,101822.10
2018-05-11T14:28:54.436Z,101817.98
2018-05-11T14:31:57.836Z,101815.25
2018-05-11T14:35:01.099Z,101807.99
2018-05-11T14:38:04.423Z,101799.72
2018-05-11T14:41:07.774Z,101811.90
2018-05-11T14:44:11.214Z,101807.50
2018-05-11T14:47:15.155Z,101808.74
2018-05-11T14:50:18.624Z,101811.10
2018-05-11T14:53:22.064Z,101808.50
2018-05-11T14:56:26.245Z,101809.44
2018-05-11T14:59:29.484Z,101805.91
2018-05-11T15:02:32.857Z,101804.33
2018-05-11T15:05:36.114Z,101802.25
2018-05-11T15:08:39.476Z,101799.96
2018-05-11T15:11:42.880Z,101798.35
2018-05-11T15:14:46.257Z,101794.87
2018-05-11T15:17:49.568Z,101790.70
2018-05-11T15:20:52.972Z,101794.29
2018-05-11T15:23:56.252Z,101787.96
2018-05-11T15:26:59.669Z,101788.54
2018-05-11T15:30:03.206Z,101783.62
2018-05-11T15:33:06.606Z,101777.56
2018-05-11T15:36:10.214Z,101775.66
2018-05-11T15:39:13.634Z,101774.99
2018-05-11T15:42:17.755Z,101764.07
2018-05-11T15:45:21.053Z,101763.87
2018-05-11T15:48:24.442Z,101765.80
2018-05-11T15:51:27.752Z,101758.85
2018-05-11T15:54:31.045Z,101766.25
2018-05-11T15:57:34.488Z,101755.91
2018-05-11T16:00:37.987Z,101757.09
2018-05-11T16:03:41.324Z,101754.65
2018-05-11T16:06:44.659Z,101759.65
2018-05-11T16:09:48.845Z,101749.08
2018-05-11T16:12:52.365Z,101756.55
2018-05-11T16:15:55.713Z,101753.27
2018-05-11T16:18:59.124Z,101748.65
2018-05-11T16:22:02.524Z,101748.04
2018-05-11T16:25:06.904Z,101749.23
2018-05-11T16:28:10.320Z,101751.76
2018-05-11T16:31:13.754Z,101752.90
2018-05-11T16:34:17.116Z,101753.01
2018-05-11T16:37:20.494Z,101748.89
2018-05-11T16:40:23.934Z,101749.40
2018-05-11T16:43:27.111Z,101753.52
2018-05-11T16:46:31.705Z,101753.38
2018-05-11T16:49:43.471Z,101749.79
2018-05-11T16:52:46.823Z,101745.43
2018-05-11T16:55:50.250Z,101747.70
2018-05-11T16:58:53.641Z,101744.67
2018-05-11T17:01:57.147Z,101750.68
2018-05-11T17:05:00.511Z,101744.42
2018-05-11T17:08:04.038Z,101742.69
2018-05-11T17:11:08.578Z,101747.12
2018-05-11T17:14:11.821Z,101741.23
2018-05-11T17:17:15.085Z,101741.20
2018-05-11T17:20:18.499Z,101738.95
2018-05-11T17:23:21.881Z,101738.05
2018-05-11T17:26:25.153Z,101739.15
2018-05-11T17:29:28.649Z,101740.93
2018-05-11T17:32:31.977Z,101742.52
2018-05-11T17:35:35.315Z,101743.97
2018-05-11T17:38:38.884Z,101741.80
2018-05-11T17:41:42.388Z,101742.06
2018-05-11T17:44:45.802Z,101740.51
2018-05-11T17:47:49.226Z,101740.26
2018-05-11T17:50:52.615Z,101741.83
2018-05-11T17:53:56.000Z,101740.32
2018-05-11T17:56:59.915Z,101740.49
2018-05-11T18:00:04.671Z,101739.94
2018-05-11T18:03:09.052Z,101737.11
2018-05-11T18:06:14.705Z,101739.65
2018-05-11T18:09:18.052Z,101744.87
2018-05-11T18:12:21.513Z,101749.75
2018-05-11T18:15:24.788Z,101749.70
2018-05-11T18:18:28.089Z,101752.57
2018-05-11T18:21:31.486Z,101752.20
2018-05-11T18:24:34.945Z,101752.29
2018-05-11T18:27:38.470Z,101753.23
2018-05-11T18:30:42.474Z,101754.40
2018-05-11T18:33:46.444Z,101750.77
2018-05-11T18:36:49.973Z,101751.91
2018-05-11T18:39:53.625Z,101749.65
2018-05-11T18:42:57.514Z,101749.03
2018-05-11T18:46:01.489Z,101749.93
2018-05-11T18:49:05.954Z,101749.61
2018-05-11T18:52:09.712Z,101756.50
2018-05-11T18:55:13.665Z,101757.82
2018-05-11T18:58:17.578Z,101760.66
2018-05-11T19:01:22.163Z,101756.26
2018-05-11T19:04:25.772Z,101765.28
2018-05-11T19:07:29.623Z,101766.97
2018-05-11T19:10:33.244Z,101769.49
2018-05-11T19:13:37.719Z,101777.43
2018-05-11T19:16:41.668Z,101785.18
2018-05-11T19:19:45.257Z,101786.91
2018-05-11T19:22:48.859Z,101790.05
2018-05-11T19:25:52.777Z,101791.56
2018-05-11T19:28:56.789Z,101798.87
2018-05-11T19:32:00.400Z,101802.63
2018-05-11T19:35:03.694Z,101806.88
2018-05-11T19:38:08.112Z,101807.02
2018-05-11T19:41:11.463Z,101808.96
2018-05-11T19:44:14.914Z,101809.17
2018-05-11T19:47:18.160Z,101815.87
2018-05-11T19:50:22.569Z,101814.01
2018-05-11T19:53:25.804Z,101824.05
2018-05-11T19:56:29.142Z,101821.70
2018-05-11T19:59:32.327Z,101824.33
2018-05-11T20:02:35.711Z,101823.91
2018-05-11T20:05:39.077Z,101827.77
2018-05-11T20:08:42.440Z,101832.96
2018-05-11T20:11:45.871Z,101834.29
2018-05-11T20:14:49.312Z,101835.58
2018-05-11T20:17:52.680Z,101835.56
2018-05-11T20:20:56.140Z,101841.77
2018-05-11T20:24:00.631Z,101843.54
2018-05-11T20:27:03.878Z,101843.22
2018-05-11T20:30:09.401Z,101841.58
2018-05-11T20:33:12.651Z,101845.99
2018-05-11T20:36:16.095Z,101848.33
2018-05-11T20:39:23.337Z,101845.44
2018-05-11T20:42:26.695Z,101849.68
2018-05-11T20:45:30.021Z,101849.26
2018-05-11T20:48:33.333Z,101848.10
2018-05-11T20:51:36.530Z,101847.91
2018-05-11T20:54:39.916Z,101849.78
2018-05-11T20:57:43.396Z,101847.26
2018-05-11T21:00:46.725Z,101845.91
2018-05-11T21:03:50.079Z,101849.01
2018-05-11T21:06:53.537Z,101843.34
2018-05-11T21:09:56.827Z,101844.79
2018-05-11T21:13:00.703Z,101843.81
2018-05-11T21:16:04.021Z,101843.56
2018-05-11T21:19:07.420Z,101844.49
2018-05-11T21:22:10.816Z,101840.67
2018-05-11T21:25:15.032Z,101838.24
2018-05-11T21:28:18.879Z,101843.64
2018-05-11T21:31:22.217Z,101852.49
2018-05-11T21:34:26.571Z,101855.61
2018-05-11T21:37:29.995Z,101855.69
2018-05-11T21:40:33.373Z,101853.78
2018-05-11T21:43:36.759Z,101855.92
2018-05-11T21:46:41.131Z,101856.18
2018-05-11T21:49:44.699Z,101855.37
2018-05-11T21:52:48.993Z,101862.79
2018-05-11T21:55:52.406Z,101861.45
2018-05-11T21:58:56.452Z,101860.81
2018-05-11T22:02:00.845Z,101857.93
2018-05-11T22:05:04.249Z,101860.98
2018-05-11T22:08:07.558Z,101857.24
2018-05-11T22:11:10.931Z,101857.25
2018-05-11T22:14:14.441Z,101855.84
2018-05-11T22:17:17.744Z,101858.09
2018-05-11T22:20:22.206Z,101851.69
2018-05-11T22:23:26.635Z,101855.50
2018-05-11T22:26:30.014Z,101854.91
2018-05-11T22:29:33.326Z,101847.75
2018-05-11T22:32:36.748Z,101847.40
2018-05-11T22:35:40.131Z,101847.77
2018-05-11T22:38:43.454Z,101845.09
2018-05-11T22:41:47.184Z,101843.28
2018-05-11T22:44:50.507Z,101838.54
2018-05-11T22:47:54.187Z,101841.20
2018-05-11T22:50:57.535Z,101841.70
2018-05-11T22:54:00.820Z,101840.39
2018-05-11T22:57:04.135Z,101842.43
2018-05-11T23:00:07.552Z,101840.91
2018-05-11T23:03:10.951Z,101839.61
2018-05-11T23:06:14.253Z,101834.59
2018-05-11T23:09:17.672Z,101833.81
2018-05-11T23:12:20.980Z,101833.55
2018-05-11T23:15:25.248Z,101833.22
2018-05-11T23:18:29.224Z,101835.27
2018-05-11T23:21:32.821Z,101836.27
2018-05-11T23:24:36.855Z,101834.19
2018-05-11T23:27:40.551Z,101831.70
2018-05-11T23:30:44.356Z,101826.26
2018-05-11T23:33:47.905Z,101823.18
2018-05-11T23:36:51.980Z,101820.56
2018-05-11T23:39:56.462Z,101816.97
2018-05-11T23:43:00.445Z,101812.14
2018-05-11T23:46:04.472Z,101814.27
2018-05-11T23:49:09.048Z,101811.01
2018-05-11T23:52:13.072Z,101806.51
2018-05-11T23:55:16.664Z,101810.17
2018-05-11T23:58:20.531Z,101806.38
